Impacts TAF Board
For situational awareness. Not to be used for flight planning purposes.
IDs:

KPDX - Portland Intl Arpt, OR, US

Issued at 1139 UTC 16 Sep 2019
Updated at 1205 UTC 16 Sep 2019
Potential Impact None Slight Moderate High
Time1153Z 16/13Z 16/14Z 16/15Z 16/16Z 16/17Z 16/18Z 16/19Z 16/20Z 16/21Z 16/22Z 16/23Z 17/00Z 17/01Z>>
Type OBS PRVL PRVL PRVL PRVL PRVL PRVL PRVL PRVL PRVL PRVL PRVL PRVL PRVL
VIS 10 >6 >6 >6 >6 >6 >6 >6 >6 >6 >6 >6 >6 >6
CIG 27 23 23 23 23 23 23 70 70 70 70 60 60 60
Cover OVC OVC OVC OVC OVC OVC OVC BKN BKN BKN BKN BKN BKN BKN
FltCat MVFR MVFR MVFR MVFR MVFR MVFR MVFR VFR VFR VFR VFR VFR VFR VFR
WX -- -- -- -- -- -- -- -SHRA -SHRA -SHRA -SHRA -SHRA VCTS -SHRA VCTS -SHRA VCTS
WDir 210 190 190 190 190 190 190 200 200 200 200 210 210 210
WSpd 6 5 5 5 5 5 5 7 7 7 7 9 9 9
WGst -- -- -- -- -- -- -- -- -- -- -- -- -- --
Raw TAF
KPDX 161139Z 1612/1712 19005KT P6SM FEW010 OVC023
  FM161900 20007KT P6SM -SHRA SCT025 BKN070
  FM162300 21009KT P6SM -SHRA VCTS SCT030CB BKN060
  FM170300 18005KT P6SM VCSH BKN040


Raw METAR
KPDX 161153Z 21006KT 10SM FEW010 BKN027 OVC040 14/12 A2980 RMK AO2 SLP090 60000 70078 T01440122 10150 20144 55001
KPDX 161053Z 19007KT 10SM FEW010 OVC025 15/13 A2980 RMK AO2 SLP089 T01500128
KPDX 160953Z 19005KT 10SM FEW010 OVC023 15/13 A2980 RMK AO2 SLP090 T01500128

METAR Board
Radar Display
Forecast Discussion
For situational awareness. Not to be used for flight planning purposes.